createdAt,value
2022-09-12T00:00:57.250Z,0.00
2022-09-12T00:01:58.504Z,0.00
2022-09-12T00:02:57.171Z,0.00
2022-09-12T00:03:59.810Z,0.00
2022-09-12T00:04:57.159Z,0.00
2022-09-12T00:05:57.146Z,0.00
2022-09-12T00:06:57.129Z,0.00
2022-09-12T00:07:57.263Z,0.00
2022-09-12T00:08:57.105Z,0.00
2022-09-12T00:09:58.158Z,0.00
2022-09-12T00:10:59.800Z,0.00
2022-09-12T00:11:57.815Z,0.00
2022-09-12T00:12:57.064Z,0.00
2022-09-12T00:13:57.088Z,0.00
2022-09-12T00:14:57.055Z,0.00
2022-09-12T00:15:57.045Z,0.00
2022-09-12T00:16:57.036Z,0.00
2022-09-12T00:17:57.042Z,0.00
2022-09-12T00:18:56.996Z,0.00
2022-09-12T00:20:00.851Z,0.00
2022-09-12T00:21:03.815Z,0.00
2022-09-12T00:21:56.971Z,0.00
2022-09-12T00:22:56.976Z,0.00
2022-09-12T00:23:56.976Z,0.00
2022-09-12T00:24:57.813Z,0.00
2022-09-12T00:25:56.933Z,0.00
2022-09-12T00:26:56.910Z,0.00
2022-09-12T00:27:56.908Z,0.00
2022-09-12T00:28:57.796Z,0.00
2022-09-12T00:29:56.921Z,0.00
2022-09-12T00:30:56.877Z,0.00
2022-09-12T00:31:56.892Z,0.00
2022-09-12T00:32:57.802Z,0.00
2022-09-12T00:33:56.843Z,0.00
2022-09-12T00:34:56.820Z,0.00
2022-09-12T00:35:56.836Z,0.00
2022-09-12T00:36:56.794Z,0.00
2022-09-12T00:37:56.797Z,0.00
2022-09-12T00:38:57.298Z,0.00
2022-09-12T00:39:56.826Z,0.00
2022-09-12T00:40:56.763Z,0.00
2022-09-12T00:41:56.745Z,0.00
2022-09-12T00:42:56.729Z,0.00
2022-09-12T00:43:56.721Z,0.00
2022-09-12T00:44:56.744Z,0.00
2022-09-12T00:45:56.722Z,0.00
2022-09-12T00:46:56.708Z,0.00
2022-09-12T00:47:56.707Z,0.00
2022-09-12T00:48:56.650Z,0.00
2022-09-12T00:49:56.663Z,0.00
2022-09-12T00:50:56.649Z,0.00
2022-09-12T00:51:56.663Z,0.00
2022-09-12T00:52:56.631Z,0.00
2022-09-12T00:54:11.318Z,0.00
2022-09-12T00:54:56.608Z,0.00
2022-09-12T00:55:56.608Z,0.00
2022-09-12T00:56:56.848Z,0.00
2022-09-12T00:57:56.593Z,0.00
2022-09-12T00:58:56.567Z,0.00
2022-09-12T00:59:57.302Z,0.00
2022-09-12T01:00:56.604Z,0.00
2022-09-12T01:01:56.978Z,0.00
2022-09-12T01:02:56.567Z,0.00
2022-09-12T01:03:56.500Z,0.00
2022-09-12T01:04:56.500Z,0.00
2022-09-12T01:05:59.308Z,0.00
2022-09-12T01:06:56.467Z,0.00
2022-09-12T01:07:59.307Z,0.00
2022-09-12T01:08:56.459Z,0.00
2022-09-12T01:09:56.437Z,0.00
2022-09-12T01:11:17.427Z,0.00
2022-09-12T01:11:56.831Z,0.00
2022-09-12T01:12:57.481Z,0.00
2022-09-12T01:13:56.393Z,0.00
2022-09-12T01:14:56.383Z,0.00
2022-09-12T01:15:56.367Z,0.00
2022-09-12T01:16:56.354Z,0.00
2022-09-12T01:17:57.307Z,0.00
2022-09-12T01:18:57.365Z,0.00
2022-09-12T01:19:56.327Z,0.00
2022-09-12T01:21:03.318Z,0.00
2022-09-12T01:21:56.803Z,0.00
2022-09-12T01:22:56.808Z,0.00
2022-09-12T01:23:56.305Z,0.00
2022-09-12T01:24:58.808Z,0.00
2022-09-12T01:25:56.265Z,0.00
2022-09-12T01:26:56.240Z,0.00
2022-09-12T01:27:56.265Z,0.00
2022-09-12T01:28:56.239Z,0.00
2022-09-12T01:29:56.340Z,0.00
2022-09-12T01:30:56.217Z,0.00
2022-09-12T01:32:02.869Z,0.00
2022-09-12T01:32:56.182Z,0.00
2022-09-12T01:33:56.173Z,0.00
2022-09-12T01:34:56.171Z,0.00
2022-09-12T01:35:56.184Z,0.00
2022-09-12T01:36:56.132Z,0.00
2022-09-12T01:37:56.130Z,0.00
2022-09-12T01:38:56.113Z,0.00
2022-09-12T01:39:56.153Z,0.00
2022-09-12T01:40:56.109Z,0.00
2022-09-12T01:41:56.113Z,0.00
2022-09-12T01:42:56.821Z,0.00
2022-09-12T01:43:56.066Z,0.00
2022-09-12T01:44:56.054Z,0.00
2022-09-12T01:45:56.088Z,0.00
2022-09-12T01:46:56.043Z,0.00
2022-09-12T01:47:56.031Z,0.00
2022-09-12T01:48:56.003Z,0.00
2022-09-12T01:49:55.992Z,0.00
2022-09-12T01:50:55.993Z,0.00
2022-09-12T01:51:55.987Z,0.00
2022-09-12T01:52:55.973Z,0.00
2022-09-12T01:53:55.950Z,0.00
2022-09-12T01:54:55.940Z,0.00
2022-09-12T01:55:58.810Z,0.00
2022-09-12T01:56:55.912Z,0.00
2022-09-12T01:57:56.841Z,0.00
2022-09-12T01:58:55.886Z,0.00
2022-09-12T01:59:55.882Z,0.00
2022-09-12T02:00:55.938Z,0.00
2022-09-12T02:01:55.932Z,0.00
2022-09-12T02:02:59.334Z,0.00
2022-09-12T02:03:55.832Z,0.00
2022-09-12T02:04:55.833Z,0.00
2022-09-12T02:05:55.817Z,0.00
2022-09-12T02:06:55.814Z,0.00
2022-09-12T02:07:55.801Z,0.00
2022-09-12T02:08:55.810Z,0.00
2022-09-12T02:09:55.764Z,0.00
2022-09-12T02:10:55.755Z,0.00
2022-09-12T02:11:55.747Z,0.00
2022-09-12T02:12:55.739Z,0.00
2022-09-12T02:13:55.755Z,0.00
2022-09-12T02:14:55.725Z,0.00
2022-09-12T02:15:55.693Z,0.00
2022-09-12T02:16:55.694Z,0.00
2022-09-12T02:17:55.686Z,0.00
2022-09-12T02:18:55.704Z,0.00
2022-09-12T02:19:55.651Z,0.00
2022-09-12T02:20:55.656Z,0.00
2022-09-12T02:21:55.627Z,0.00
2022-09-12T02:22:55.651Z,0.00
2022-09-12T02:23:55.844Z,0.00
2022-09-12T02:24:55.611Z,0.00
2022-09-12T02:25:55.588Z,0.00
2022-09-12T02:27:23.310Z,0.00
2022-09-12T02:27:55.568Z,0.00
2022-09-12T02:28:55.592Z,0.00
2022-09-12T02:29:56.309Z,0.00
2022-09-12T02:30:55.571Z,0.00
2022-09-12T02:31:58.316Z,0.00
2022-09-12T02:32:55.513Z,0.00
2022-09-12T02:33:56.320Z,0.00
2022-09-12T02:34:55.514Z,0.00
2022-09-12T02:35:55.851Z,0.00
2022-09-12T02:36:55.485Z,0.00
2022-09-12T02:37:55.459Z,0.00
2022-09-12T02:38:55.460Z,0.00
2022-09-12T02:39:55.531Z,0.00
2022-09-12T02:40:57.357Z,0.00
2022-09-12T02:42:02.320Z,0.00
2022-09-12T02:42:56.363Z,0.00
2022-09-12T02:43:55.387Z,0.00
2022-09-12T02:44:55.376Z,0.00
2022-09-12T02:45:55.466Z,0.00
2022-09-12T02:46:55.848Z,0.00
2022-09-12T02:47:55.342Z,0.00
2022-09-12T02:48:55.367Z,0.00
2022-09-12T02:50:10.315Z,0.00
2022-09-12T02:50:55.813Z,0.00
2022-09-12T02:51:55.815Z,0.00
2022-09-12T02:52:55.294Z,0.00
2022-09-12T02:53:55.295Z,0.00
2022-09-12T02:54:55.285Z,0.00
2022-09-12T02:55:55.258Z,0.00
2022-09-12T02:56:55.250Z,0.00
2022-09-12T02:57:55.266Z,0.00
2022-09-12T02:58:55.228Z,0.00
2022-09-12T02:59:55.210Z,0.00
2022-09-12T03:00:55.259Z,0.00
2022-09-12T03:01:55.257Z,0.00
2022-09-12T03:02:55.172Z,0.00
2022-09-12T03:03:55.189Z,0.00
2022-09-12T03:04:55.193Z,0.00
2022-09-12T03:05:55.143Z,0.00
2022-09-12T03:06:55.141Z,0.00
2022-09-12T03:07:55.119Z,0.00
2022-09-12T03:08:55.104Z,0.00
2022-09-12T03:09:55.110Z,0.00
2022-09-12T03:10:55.138Z,0.00
2022-09-12T03:11:55.348Z,0.00
2022-09-12T03:12:57.840Z,0.00
2022-09-12T03:13:55.056Z,0.00
2022-09-12T03:15:16.071Z,0.00
2022-09-12T03:15:57.821Z,0.00
2022-09-12T03:16:55.032Z,0.00
2022-09-12T03:17:55.012Z,0.00
2022-09-12T03:18:54.997Z,0.00
2022-09-12T03:19:54.995Z,0.00
2022-09-12T03:20:55.837Z,0.00
2022-09-12T03:21:54.974Z,0.00
2022-09-12T03:22:54.951Z,0.00
2022-09-12T03:23:54.947Z,0.00
2022-09-12T03:24:55.816Z,0.00
2022-09-12T03:25:54.946Z,0.00
2022-09-12T03:26:54.955Z,0.00
2022-09-12T03:27:55.823Z,0.00
2022-09-12T03:28:54.867Z,0.00
2022-09-12T03:29:54.880Z,0.00
2022-09-12T03:30:54.937Z,0.00
2022-09-12T03:31:54.888Z,0.00
2022-09-12T03:32:54.846Z,0.00
2022-09-12T03:33:54.842Z,0.00
2022-09-12T03:34:54.820Z,0.00
2022-09-12T03:35:54.816Z,0.00
2022-09-12T03:36:54.821Z,0.00
2022-09-12T03:37:54.791Z,0.00
2022-09-12T03:38:54.789Z,0.00
2022-09-12T03:39:54.780Z,0.00
2022-09-12T03:40:55.158Z,0.00
2022-09-12T03:41:54.743Z,0.00
2022-09-12T03:42:54.786Z,0.00
2022-09-12T03:43:54.725Z,0.00
2022-09-12T03:44:54.716Z,0.00
2022-09-12T03:45:54.803Z,0.00
2022-09-12T03:46:54.692Z,0.00
2022-09-12T03:47:54.688Z,0.00
2022-09-12T03:48:54.682Z,0.00
2022-09-12T03:49:54.683Z,0.00
2022-09-12T03:50:54.852Z,0.00
2022-09-12T03:51:54.654Z,0.00
2022-09-12T03:52:54.621Z,0.00
2022-09-12T03:53:54.646Z,0.00
2022-09-12T03:54:54.605Z,0.00
2022-09-12T03:55:54.599Z,0.00
2022-09-12T03:56:54.584Z,0.00
2022-09-12T03:57:55.316Z,0.00
2022-09-12T03:58:54.567Z,0.00
2022-09-12T03:59:54.854Z,0.00
2022-09-12T04:00:54.600Z,0.00
2022-09-12T04:01:54.561Z,0.00
2022-09-12T04:02:54.509Z,0.00
2022-09-12T04:03:54.510Z,0.00
2022-09-12T04:04:54.517Z,0.00
2022-09-12T04:05:54.860Z,0.00
2022-09-12T04:06:54.487Z,0.00
2022-09-12T04:07:55.313Z,0.00
2022-09-12T04:08:54.454Z,0.00
2022-09-12T04:09:55.330Z,0.00
2022-09-12T04:10:54.436Z,0.00
2022-09-12T04:11:54.430Z,0.00
2022-09-12T04:12:54.411Z,0.00
2022-09-12T04:13:54.387Z,0.00
2022-09-12T04:14:54.399Z,0.00
2022-09-12T04:15:54.420Z,0.00
2022-09-12T04:16:54.405Z,0.00
2022-09-12T04:17:54.348Z,0.00
2022-09-12T04:18:54.344Z,0.00
2022-09-12T04:19:54.329Z,0.00
2022-09-12T04:21:00.830Z,0.00
2022-09-12T04:21:54.301Z,0.00
2022-09-12T04:22:54.325Z,0.00
2022-09-12T04:23:54.284Z,0.00
2022-09-12T04:24:54.281Z,0.00
2022-09-12T04:25:54.259Z,0.00
2022-09-12T04:26:54.832Z,0.00
2022-09-12T04:27:54.238Z,0.00
2022-09-12T04:28:54.256Z,0.00
2022-09-12T04:29:54.221Z,4.00
2022-09-12T04:30:54.240Z,4.00
2022-09-12T04:31:54.191Z,0.00
2022-09-12T04:32:54.188Z,4.00
2022-09-12T04:33:56.820Z,4.00
2022-09-12T04:34:54.192Z,4.00
2022-09-12T04:35:54.143Z,4.00
2022-09-12T04:36:54.135Z,4.00
2022-09-12T04:37:54.135Z,4.00
2022-09-12T04:38:54.121Z,8.00
2022-09-12T04:39:54.132Z,8.00
2022-09-12T04:40:54.826Z,12.00
2022-09-12T04:41:54.119Z,12.00
2022-09-12T04:42:56.814Z,16.00
2022-09-12T04:43:54.062Z,16.00
2022-09-12T04:44:54.048Z,20.00
2022-09-12T04:45:54.088Z,20.00
2022-09-12T04:46:54.035Z,24.00
2022-09-12T04:47:54.048Z,24.00
2022-09-12T04:48:56.895Z,32.00
2022-09-12T04:49:54.005Z,36.00
2022-09-12T04:50:53.982Z,40.00
2022-09-12T04:51:54.353Z,52.00
2022-09-12T04:52:53.956Z,56.00
2022-09-12T04:53:53.933Z,60.00
2022-09-12T04:54:53.941Z,68.00
2022-09-12T04:55:53.943Z,76.00
2022-09-12T04:56:53.924Z,84.00
2022-09-12T04:57:53.921Z,88.00
2022-09-12T04:58:54.820Z,96.00
2022-09-12T04:59:53.885Z,104.00
2022-09-12T05:00:53.969Z,112.00
2022-09-12T05:01:54.878Z,124.00
2022-09-12T05:02:53.884Z,136.00
2022-09-12T05:03:53.848Z,148.00
2022-09-12T05:04:53.829Z,156.00
2022-09-12T05:05:56.419Z,168.00
2022-09-12T05:06:53.804Z,184.00
2022-09-12T05:07:53.795Z,196.00
2022-09-12T05:08:53.784Z,212.00
2022-09-12T05:09:53.797Z,232.00
2022-09-12T05:10:53.791Z,248.00
2022-09-12T05:12:09.178Z,272.00
2022-09-12T05:12:54.738Z,292.00
2022-09-12T05:13:53.730Z,312.00
2022-09-12T05:14:53.724Z,340.00
2022-09-12T05:15:53.749Z,360.00
2022-09-12T05:16:53.770Z,388.00
2022-09-12T05:17:53.687Z,408.00
2022-09-12T05:18:53.698Z,432.00
2022-09-12T05:19:53.685Z,452.00
2022-09-12T05:20:53.663Z,472.00
2022-09-12T05:21:53.633Z,492.00
2022-09-12T05:22:53.634Z,508.00
2022-09-12T05:23:53.620Z,528.00
2022-09-12T05:24:53.615Z,544.00
2022-09-12T05:25:53.611Z,556.00
2022-09-12T05:26:53.589Z,572.00
2022-09-12T05:27:53.578Z,580.00
2022-09-12T05:28:53.563Z,596.00
2022-09-12T05:29:53.558Z,608.00
2022-09-12T05:30:56.401Z,620.00
2022-09-12T05:31:53.548Z,636.00
2022-09-12T05:32:53.519Z,652.00
2022-09-12T05:33:53.503Z,668.00
2022-09-12T05:34:53.508Z,680.00
2022-09-12T05:35:53.508Z,696.00
2022-09-12T05:36:53.465Z,708.00
2022-09-12T05:37:53.475Z,724.00
2022-09-12T05:38:53.455Z,740.00
2022-09-12T05:39:53.491Z,760.00
2022-09-12T05:40:53.423Z,784.00
2022-09-12T05:41:54.327Z,812.00
2022-09-12T05:42:54.329Z,832.00
2022-09-12T05:43:53.411Z,852.00
2022-09-12T05:44:53.390Z,872.00
2022-09-12T05:45:53.443Z,888.00
2022-09-12T05:46:53.368Z,908.00
2022-09-12T05:47:53.352Z,924.00
2022-09-12T05:48:56.298Z,936.00
2022-09-12T05:49:53.348Z,948.00
2022-09-12T05:50:55.840Z,964.00
2022-09-12T05:51:53.303Z,980.00
2022-09-12T05:52:55.832Z,1000.00
2022-09-12T05:53:53.292Z,1024.00
2022-09-12T05:54:53.371Z,1048.00
2022-09-12T05:55:53.264Z,1072.00
2022-09-12T05:56:53.349Z,1088.00
2022-09-12T05:57:53.242Z,1100.00
2022-09-12T05:58:53.232Z,1116.00
2022-09-12T05:59:53.209Z,1132.00
2022-09-12T06:00:53.227Z,1148.00
2022-09-12T06:01:53.368Z,1160.00
2022-09-12T06:02:53.184Z,1180.00
2022-09-12T06:03:53.175Z,1204.00
2022-09-12T06:04:55.842Z,1228.00
2022-09-12T06:05:53.146Z,1244.00
2022-09-12T06:06:53.168Z,1252.00
2022-09-12T06:07:53.148Z,1260.00
2022-09-12T06:08:53.117Z,1276.00
2022-09-12T06:09:53.120Z,1300.00
2022-09-12T06:10:53.841Z,1328.00
2022-09-12T06:11:53.092Z,1348.00
2022-09-12T06:12:53.076Z,1360.00
2022-09-12T06:13:53.079Z,1372.00
2022-09-12T06:14:53.357Z,1396.00
2022-09-12T06:15:53.353Z,1424.00
2022-09-12T06:16:53.136Z,1456.00
2022-09-12T06:17:53.836Z,1476.00
2022-09-12T06:18:53.000Z,1492.00
2022-09-12T06:19:53.005Z,1496.00
2022-09-12T06:20:52.981Z,1508.00
2022-09-12T06:21:52.997Z,1536.00
2022-09-12T06:22:52.974Z,1584.00
2022-09-12T06:23:52.959Z,1632.00
2022-09-12T06:24:57.759Z,1668.00
2022-09-12T06:25:53.932Z,1684.00
2022-09-12T06:26:52.990Z,1700.00
2022-09-12T06:27:52.913Z,1720.00
2022-09-12T06:28:52.890Z,1740.00
2022-09-12T06:29:53.834Z,1764.00
2022-09-12T06:30:52.912Z,1784.00
2022-09-12T06:31:52.867Z,1808.00
2022-09-12T06:32:52.866Z,1844.00
2022-09-12T06:33:53.874Z,1888.00
2022-09-12T06:34:59.336Z,1936.00
2022-09-12T06:35:52.820Z,1996.00
2022-09-12T06:36:52.817Z,2056.00
2022-09-12T06:37:52.855Z,2124.00
2022-09-12T06:38:55.351Z,2188.00
2022-09-12T06:39:52.818Z,2264.00
2022-09-12T06:40:52.755Z,2344.00
2022-09-12T06:41:52.751Z,2424.00
2022-09-12T06:42:52.744Z,2492.00
2022-09-12T06:43:52.749Z,2556.00
2022-09-12T06:44:52.719Z,2612.00
2022-09-12T06:45:52.752Z,2660.00
2022-09-12T06:46:52.693Z,2696.00
2022-09-12T06:47:52.714Z,2720.00
2022-09-12T06:48:52.679Z,2728.00
2022-09-12T06:49:52.664Z,2740.00
2022-09-12T06:50:52.654Z,2740.00
2022-09-12T06:51:52.636Z,2736.00
2022-09-12T06:52:52.640Z,2736.00
2022-09-12T06:53:52.632Z,2740.00
2022-09-12T06:54:52.617Z,2748.00
2022-09-12T06:55:53.613Z,2760.00
2022-09-12T06:56:52.877Z,2776.00
2022-09-12T06:57:52.579Z,2800.00
2022-09-12T06:58:53.341Z,2820.00
2022-09-12T06:59:53.342Z,2840.00
2022-09-12T07:00:57.213Z,2864.00
2022-09-12T07:01:57.009Z,2880.00
2022-09-12T07:02:52.516Z,2908.00
2022-09-12T07:03:53.370Z,2936.00
2022-09-12T07:04:52.510Z,2952.00
2022-09-12T07:05:52.488Z,2948.00
2022-09-12T07:06:52.475Z,2956.00
2022-09-12T07:07:59.374Z,2960.00
2022-09-12T07:08:52.449Z,2948.00
2022-09-12T07:09:52.452Z,2948.00
2022-09-12T07:10:52.465Z,2956.00
2022-09-12T07:11:52.446Z,2992.00
2022-09-12T07:12:53.338Z,3028.00
2022-09-12T07:13:53.343Z,3072.00
2022-09-12T07:14:52.398Z,3112.00
2022-09-12T07:15:52.604Z,3164.00
2022-09-12T07:16:52.420Z,3208.00
2022-09-12T07:17:59.345Z,3248.00
2022-09-12T07:18:59.338Z,3272.00
2022-09-12T07:19:52.837Z,3300.00
2022-09-12T07:20:52.843Z,3328.00
2022-09-12T07:21:56.538Z,3356.00
2022-09-12T07:22:53.301Z,3368.00
2022-09-12T07:23:54.858Z,3384.00
2022-09-12T07:24:52.835Z,3408.00
2022-09-12T07:25:52.268Z,3420.00
2022-09-12T07:26:52.376Z,3428.00
2022-09-12T07:27:54.846Z,3440.00
2022-09-12T07:28:52.241Z,3452.00
2022-09-12T07:29:52.240Z,3460.00
2022-09-12T07:30:52.237Z,3456.00
2022-09-12T07:31:52.187Z,3456.00
2022-09-12T07:32:53.204Z,3452.00
2022-09-12T07:33:58.862Z,3448.00
2022-09-12T07:34:52.179Z,3448.00
2022-09-12T07:35:52.145Z,3440.00
2022-09-12T07:36:54.846Z,3424.00
2022-09-12T07:37:52.839Z,3400.00
2022-09-12T07:38:56.738Z,3376.00
2022-09-12T07:39:52.112Z,3356.00
2022-09-12T07:40:58.846Z,3348.00
2022-09-12T07:41:54.857Z,3348.00
2022-09-12T07:42:52.070Z,3352.00
2022-09-12T07:43:52.059Z,3360.00
2022-09-12T07:44:52.067Z,3360.00
2022-09-12T07:45:52.050Z,3356.00
2022-09-12T07:46:54.852Z,3348.00
2022-09-12T07:47:52.005Z,3344.00
2022-09-12T07:48:51.999Z,3340.00
2022-09-12T07:49:52.000Z,3344.00
2022-09-12T07:50:52.021Z,3352.00
2022-09-12T07:51:51.980Z,3372.00
2022-09-12T07:52:51.948Z,3392.00
2022-09-12T07:53:52.851Z,3420.00
2022-09-12T07:54:52.834Z,3440.00
2022-09-12T07:55:54.851Z,3468.00
2022-09-12T07:56:52.871Z,3492.00
2022-09-12T07:57:52.876Z,3520.00
2022-09-12T07:58:51.888Z,3552.00
2022-09-12T07:59:53.522Z,3588.00
2022-09-12T08:00:51.868Z,3624.00
2022-09-12T08:01:51.878Z,3668.00
2022-09-12T08:02:51.935Z,3712.00
2022-09-12T08:03:51.840Z,3764.00
2022-09-12T08:04:51.821Z,3816.00
2022-09-12T08:05:52.336Z,3872.00
2022-09-12T08:06:51.802Z,3920.00
2022-09-12T08:07:55.796Z,3968.00
2022-09-12T08:08:52.778Z,4008.00
2022-09-12T08:09:51.776Z,4032.00
2022-09-12T08:10:51.753Z,4052.00
2022-09-12T08:11:51.782Z,4060.00
2022-09-12T08:12:51.740Z,4072.00
2022-09-12T08:13:55.046Z,4076.00
2022-09-12T08:14:54.358Z,4096.00
2022-09-12T08:15:52.354Z,4120.00
2022-09-12T08:16:52.346Z,4152.00
2022-09-12T08:17:51.696Z,4188.00
2022-09-12T08:18:51.670Z,4220.00
2022-09-12T08:19:51.657Z,4252.00
2022-09-12T08:20:51.646Z,4280.00
2022-09-12T08:21:51.636Z,4304.00
2022-09-12T08:22:51.637Z,4328.00
2022-09-12T08:23:54.348Z,4352.00
2022-09-12T08:24:51.609Z,4380.00
2022-09-12T08:25:51.586Z,4416.00
2022-09-12T08:26:52.604Z,4452.00
2022-09-12T08:27:51.567Z,4488.00
2022-09-12T08:28:51.553Z,4512.00
2022-09-12T08:29:51.568Z,4532.00
2022-09-12T08:30:52.395Z,4548.00
2022-09-12T08:31:55.225Z,4552.00
2022-09-12T08:32:52.528Z,4572.00
2022-09-12T08:33:51.499Z,4576.00
2022-09-12T08:34:51.494Z,4576.00
2022-09-12T08:35:51.472Z,4568.00
2022-09-12T08:36:51.491Z,4540.00
2022-09-12T08:37:54.352Z,4508.00
2022-09-12T08:38:54.432Z,4468.00
2022-09-12T08:39:59.432Z,4420.00
2022-09-12T08:40:51.424Z,4372.00
2022-09-12T08:41:51.878Z,4320.00
2022-09-12T08:42:51.412Z,4276.00
2022-09-12T08:43:56.063Z,4220.00
2022-09-12T08:44:51.389Z,4164.00
2022-09-12T08:45:51.504Z,4120.00
2022-09-12T08:46:52.352Z,4076.00
2022-09-12T08:47:51.383Z,4048.00
2022-09-12T08:48:51.859Z,4020.00
2022-09-12T08:49:51.404Z,3996.00
2022-09-12T08:50:51.313Z,3972.00
2022-09-12T08:52:05.846Z,3952.00
2022-09-12T08:52:51.307Z,3936.00
2022-09-12T08:53:51.281Z,3920.00
2022-09-12T08:54:51.268Z,3904.00
2022-09-12T08:55:51.849Z,3888.00
2022-09-12T08:56:51.374Z,3896.00
2022-09-12T08:57:51.236Z,3904.00
2022-09-12T08:58:51.237Z,3916.00
2022-09-12T08:59:51.385Z,3912.00
2022-09-12T09:00:57.869Z,3908.00
2022-09-12T09:01:51.264Z,3908.00
2022-09-12T09:02:51.312Z,3904.00
2022-09-12T09:03:51.171Z,3904.00
2022-09-12T09:04:51.155Z,3920.00
2022-09-12T09:05:51.383Z,3944.00
2022-09-12T09:06:51.140Z,3992.00
2022-09-12T09:07:53.872Z,4044.00
2022-09-12T09:08:51.130Z,4104.00
2022-09-12T09:09:51.112Z,4172.00
2022-09-12T09:10:51.089Z,4236.00
2022-09-12T09:11:51.087Z,4328.00
2022-09-12T09:12:51.066Z,4420.00
2022-09-12T09:13:51.054Z,4504.00
2022-09-12T09:14:51.089Z,4636.00
2022-09-12T09:15:51.092Z,4900.00
2022-09-12T09:16:51.872Z,5012.00
2022-09-12T09:17:51.018Z,5092.00
2022-09-12T09:18:51.010Z,5248.00
2022-09-12T09:19:51.193Z,5408.00
2022-09-12T09:20:51.010Z,5216.00
2022-09-12T09:22:12.865Z,5340.00
2022-09-12T09:22:50.967Z,5552.00
2022-09-12T09:23:50.959Z,5692.00
2022-09-12T09:24:53.855Z,5620.00
2022-09-12T09:25:50.930Z,5436.00
2022-09-12T09:26:50.929Z,5324.00
2022-09-12T09:27:50.912Z,5060.00
2022-09-12T09:28:51.853Z,5092.00
2022-09-12T09:29:50.874Z,4832.00
2022-09-12T09:30:50.958Z,4640.00
2022-09-12T09:31:50.915Z,4468.00
2022-09-12T09:32:50.897Z,4668.00
2022-09-12T09:33:50.840Z,4412.00
2022-09-12T09:34:50.819Z,4068.00
2022-09-12T09:35:51.360Z,3816.00
2022-09-12T09:36:50.807Z,3732.00
2022-09-12T09:37:53.597Z,3524.00
2022-09-12T09:38:51.887Z,3296.00
2022-09-12T09:39:50.814Z,3140.00
2022-09-12T09:40:53.371Z,3108.00
2022-09-12T09:41:53.354Z,3000.00
2022-09-12T09:42:50.737Z,2944.00
2022-09-12T09:43:50.762Z,2776.00
2022-09-12T09:44:50.715Z,2780.00
2022-09-12T09:45:50.773Z,2752.00
2022-09-12T09:46:50.699Z,2720.00
2022-09-12T09:47:50.669Z,2836.00
2022-09-12T09:48:51.743Z,2636.00
2022-09-12T09:49:50.672Z,2720.00
2022-09-12T09:50:57.363Z,2924.00
2022-09-12T09:51:51.356Z,3420.00
2022-09-12T09:52:51.376Z,3824.00
2022-09-12T09:53:50.614Z,3876.00
2022-09-12T09:54:50.609Z,3728.00
2022-09-12T09:55:50.615Z,3644.00
2022-09-12T09:56:51.367Z,3988.00
2022-09-12T09:57:50.562Z,4316.00
2022-09-12T09:58:51.363Z,4752.00
2022-09-12T09:59:51.453Z,4868.00
2022-09-12T10:00:54.842Z,4848.00
2022-09-12T10:01:52.489Z,4648.00
2022-09-12T10:02:50.645Z,4440.00
2022-09-12T10:03:52.405Z,4044.00
2022-09-12T10:04:50.499Z,3840.00
2022-09-12T10:05:50.480Z,3724.00
2022-09-12T10:06:51.366Z,3728.00
2022-09-12T10:07:50.484Z,3816.00
2022-09-12T10:08:50.427Z,3460.00
2022-09-12T10:09:53.363Z,3452.00
2022-09-12T10:11:05.362Z,3436.00
2022-09-12T10:11:53.366Z,3424.00
2022-09-12T10:12:50.883Z,3444.00
2022-09-12T10:13:50.396Z,3540.00
2022-09-12T10:14:50.366Z,2928.00
2022-09-12T10:15:50.399Z,2800.00
2022-09-12T10:16:50.373Z,2940.00
2022-09-12T10:17:50.388Z,2904.00
2022-09-12T10:18:50.328Z,2596.00
2022-09-12T10:20:10.572Z,2544.00
2022-09-12T10:20:51.315Z,2536.00
2022-09-12T10:21:50.409Z,2416.00
2022-09-12T10:22:50.275Z,2532.00
2022-09-12T10:23:50.280Z,2812.00
2022-09-12T10:24:50.869Z,2804.00
2022-09-12T10:25:50.253Z,2656.00
2022-09-12T10:26:54.497Z,2752.00
2022-09-12T10:27:51.243Z,2920.00
2022-09-12T10:28:50.219Z,2932.00
2022-09-12T10:29:50.268Z,2892.00
2022-09-12T10:30:50.249Z,2908.00
2022-09-12T10:31:50.170Z,2884.00
2022-09-12T10:32:50.165Z,2868.00
2022-09-12T10:33:50.468Z,2816.00
2022-09-12T10:34:50.158Z,2808.00
2022-09-12T10:35:50.122Z,2828.00
2022-09-12T10:36:52.883Z,2816.00
2022-09-12T10:37:52.273Z,2784.00
2022-09-12T10:38:50.104Z,2740.00
2022-09-12T10:39:50.188Z,2644.00
2022-09-12T10:41:04.870Z,2640.00
2022-09-12T10:41:50.092Z,2636.00
2022-09-12T10:42:50.069Z,2620.00
2022-09-12T10:43:52.867Z,2616.00
2022-09-12T10:44:50.043Z,2600.00
2022-09-12T10:45:50.064Z,2592.00
2022-09-12T10:46:50.011Z,2584.00
2022-09-12T10:47:49.991Z,2568.00
2022-09-12T10:48:50.015Z,2560.00
2022-09-12T10:49:56.866Z,2560.00
2022-09-12T10:50:49.965Z,2556.00
2022-09-12T10:51:49.967Z,2548.00
2022-09-12T10:52:50.887Z,2528.00
2022-09-12T10:53:49.938Z,2516.00
2022-09-12T10:54:49.952Z,2508.00
2022-09-12T10:55:49.916Z,2532.00
2022-09-12T10:56:49.893Z,2548.00
2022-09-12T10:57:49.889Z,2556.00
2022-09-12T10:58:49.907Z,2572.00
2022-09-12T10:59:49.869Z,2600.00
2022-09-12T11:00:49.909Z,2632.00
2022-09-12T11:01:49.907Z,2696.00
2022-09-12T11:02:49.884Z,2748.00
2022-09-12T11:03:50.376Z,2792.00
2022-09-12T11:04:49.821Z,2824.00
2022-09-12T11:05:49.791Z,2880.00
2022-09-12T11:06:49.808Z,2936.00
2022-09-12T11:07:50.384Z,2964.00
2022-09-12T11:08:49.784Z,2976.00
2022-09-12T11:09:49.762Z,2996.00
2022-09-12T11:10:49.767Z,2996.00
2022-09-12T11:11:49.714Z,3028.00
2022-09-12T11:12:50.379Z,3068.00
2022-09-12T11:13:49.719Z,3036.00
2022-09-12T11:14:49.689Z,2984.00
2022-09-12T11:15:49.966Z,3076.00
2022-09-12T11:16:49.697Z,3056.00
2022-09-12T11:17:49.669Z,3068.00
2022-09-12T11:18:49.664Z,3140.00
2022-09-12T11:19:52.387Z,3144.00
2022-09-12T11:20:49.640Z,3236.00
2022-09-12T11:21:49.643Z,3256.00
2022-09-12T11:22:50.387Z,3264.00
2022-09-12T11:23:52.395Z,3220.00
2022-09-12T11:24:49.591Z,3216.00
2022-09-12T11:25:50.375Z,3316.00
2022-09-12T11:26:49.590Z,3560.00
2022-09-12T11:27:49.551Z,3660.00
2022-09-12T11:28:50.065Z,3724.00
2022-09-12T11:29:49.536Z,3780.00
2022-09-12T11:30:50.432Z,3816.00
2022-09-12T11:31:49.509Z,3832.00
2022-09-12T11:32:49.522Z,3880.00
2022-09-12T11:33:49.600Z,3900.00
2022-09-12T11:34:49.498Z,3908.00
2022-09-12T11:35:54.455Z,4056.00
2022-09-12T11:36:50.464Z,4004.00
2022-09-12T11:37:49.455Z,4304.00
2022-09-12T11:38:49.431Z,4268.00
2022-09-12T11:39:53.457Z,4188.00
2022-09-12T11:40:50.433Z,4184.00
2022-09-12T11:41:49.409Z,4076.00
2022-09-12T11:42:49.391Z,4140.00
2022-09-12T11:43:49.405Z,4164.00
2022-09-12T11:44:49.376Z,3440.00
2022-09-12T11:45:49.433Z,4236.00
2022-09-12T11:46:51.904Z,4308.00
2022-09-12T11:47:49.341Z,4448.00
2022-09-12T11:48:49.326Z,4464.00
2022-09-12T11:49:49.335Z,4408.00
2022-09-12T11:50:49.321Z,4440.00
2022-09-12T11:51:49.295Z,4496.00
2022-09-12T11:52:49.289Z,4520.00
2022-09-12T11:53:49.273Z,4488.00
2022-09-12T11:54:53.513Z,4556.00
2022-09-12T11:55:49.263Z,4432.00
2022-09-12T11:56:49.231Z,4520.00
2022-09-12T11:57:49.223Z,4728.00
2022-09-12T11:58:49.219Z,3936.00
2022-09-12T11:59:49.197Z,4800.00
2022-09-12T12:00:49.214Z,4848.00
2022-09-12T12:01:49.203Z,4856.00
2022-09-12T12:02:49.187Z,4876.00
2022-09-12T12:03:52.965Z,4816.00
2022-09-12T12:04:55.881Z,4776.00
2022-09-12T12:05:49.152Z,4796.00
2022-09-12T12:06:49.140Z,4744.00
2022-09-12T12:07:49.138Z,4732.00
2022-09-12T12:08:49.887Z,2356.00
2022-09-12T12:09:49.094Z,3060.00
2022-09-12T12:10:49.081Z,5256.00
2022-09-12T12:11:49.087Z,5208.00
2022-09-12T12:12:49.056Z,5172.00
2022-09-12T12:13:49.072Z,5212.00
2022-09-12T12:14:49.042Z,5208.00
2022-09-12T12:15:49.073Z,5232.00
2022-09-12T12:16:49.036Z,5304.00
2022-09-12T12:17:49.927Z,5192.00
2022-09-12T12:18:48.996Z,5172.00
2022-09-12T12:19:48.980Z,5260.00
2022-09-12T12:20:48.975Z,5368.00
2022-09-12T12:21:48.964Z,5576.00
2022-09-12T12:22:51.910Z,5504.00
2022-09-12T12:23:48.958Z,5452.00
2022-09-12T12:24:48.932Z,5232.00
2022-09-12T12:25:48.919Z,5292.00
2022-09-12T12:26:48.931Z,5420.00
2022-09-12T12:27:48.911Z,5424.00
2022-09-12T12:28:49.484Z,5532.00
2022-09-12T12:29:48.895Z,2484.00
2022-09-12T12:30:51.511Z,2736.00
2022-09-12T12:31:48.841Z,5592.00
2022-09-12T12:32:48.846Z,5780.00
2022-09-12T12:33:48.830Z,5764.00
2022-09-12T12:34:48.851Z,5832.00